Terminal Aerodrome Forecast
Issued by NWS Caribou, ME

Home | Current Version | Previous Version | Text Only | Print | Product List | Glossary On
Versions: 1 2 3 4 5 6 7 8 9 10 11 12 13 14 15 16 17 18 19 20 21
644
FTUS41 KCAR 252323
TAFCAR
TAF
KCAR 252323Z 2600/2624 15008KT 1/4SM FG VV002 WS020/18040KT
     FM260500 15012KT 1/2SM -SHRA FG OVC003 WS020/17045KT
     FM260700 16010G16KT 2SM -SHRA BR OVC005
     FM261000 26010KT 2SM -SHRASN OVC010
     FM261300 27012G18KT P6SM OVC030
     FM261700 27015G25KT P6SM BKN035=

USA.gov is the U.S. government's official web portal to all federal, state and local government web resources and services.